Terminal Aerodrome Forecast
Issued by NWS

Home | Current Version | Previous Version | Text Only | Print | Product List | Glossary On
Versions: 1 2 3 4 5 6 7 8 9 10 11 12 13 14 15 16 17
000
FTUS45 KRIW 181100
TAFLND
TAF
KLND 181136Z 1812/1912 VRB06KT P6SM SCT080
     FM181600 34010KT P6SM SCT050 BKN080
     FM182200 01008G15KT P6SM VCSH SCT030 OVC050
     FM190800 34007KT P6SM VCSH OVC030=

USA.gov is the U.S. government's official web portal to all federal, state and local government web resources and services.